Historyczne dane pomiarowe

Dodano dane terminowe – wersja testowa.

Dane z okresu 1951-2019

Wersja bazy: 1.34 [2019-03-16, lista zmian], aktualizacja planowana na 2019-04-15

Dane meteo z obszaru Polski uzyskane na podstawie danych udostępnionych przez Instytut Meteorologii i Gospodarki Wodnej – Państwowy Instytut Badawczy.

 

Wybierz Datę:    

       

TemperaturaWilgotnośćWiatrCiśnienieOpadyŚniegCzas trwania zjawisk
 Stacja t tx tn tng RH VA  wxwx mslp ppp RRR   cm mm wxwxwxwxwxwxwx
1983-08-14 12.3 18.5 7.9- 72.3- 1.7 2.7---- 0.0------------
1983-08-13 14.5 19.5 13.4- 86.0- 4.7 2.0---- 0.5------------
1983-08-12 20.4 26.5 16.5- 68.0- 0.3 1.7---- 0.5------------
1983-08-11 19.8 27.0 13.1- 70.3- 2.3 2.0---- 0.0------------
1983-08-10 18.8 26.4 11.0- 70.0- 0.0 1.3---- 0.0------------
1983-08-09 19.2 25.1 12.8- 70.0- 2.0 2.0---- 0.0------------
1983-08-08 20.1 26.6 14.9- 83.5- 3.0 3.3---- 0.1------------
1983-08-07 17.9 26.2 16.0- 91.0- 6.3 4.3---- 10.4------------
1983-08-06 18.2 24.0 14.3- 80.0- 4.3 1.0---- 0.0------------
1983-08-05 15.5 19.5 13.9- 91.5- 7.0 1.0---- 2.4------------
1983-08-04 21.5 27.5 17.9- 68.5- 6.3 6.0---- 0.0------------
1983-08-03 21.5 26.9 13.6- 59.5- 0.7 4.3---- 0.0------------
1983-08-02 20.2 26.8 13.6- 62.0- 0.3 3.7---- 0.0------------
1983-08-01 19.6 26.3 11.6- 61.0- 0.0 2.3---- 0.0------------
1983-07-31 16.8 22.5 12.0- 77.8- 2.7 2.3---- 0.0------------
1983-07-30 15.5 19.2 13.0- 89.3- 7.3 5.7---- 0.0------------
1983-07-29 16.9 20.1 14.5- 87.3- 6.3 0.7---- 0.0------------
1983-07-28 20.3 25.8 16.8- 81.5- 6.0 3.3---- 0.0------------
1983-07-27 21.8 28.5 15.0- 77.3- 0.7 1.0---- 0.0------------
1983-07-26 21.4 27.7 15.7- 78.8- 4.0 7.0---- 0.0------------
1983-07-25 14.0 19.0 10.6- 91.5- 5.7 4.3---- 1.2------------
1983-07-24 14.4 20.5 6.8- 75.0- 3.0 0.0---- 3.0------------
1983-07-23 13.2 17.2 10.0- 90.8- 5.7 1.7---- 0.0------------
1983-07-22 12.2 16.5 8.2- 84.8- 3.7 4.7---- 14.1------------
1983-07-21 11.0 17.6 7.2- 82.8- 4.3 7.0---- 0.8------------
1983-07-20 12.9 19.5 9.6- 85.0- 4.7 3.7---- 6.7------------
1983-07-19 19.5 23.2 15.5- 72.3- 4.0 7.7---- 1.8------------
1983-07-18 20.0 26.2 9.8- 59.3- 0.3 1.7---- 0.0------------
1983-07-17 17.5 23.2 11.1- 71.5- 2.3 2.0---- 0.0------------
1983-07-16 19.2 26.7 12.4- 77.0- 3.3 3.7---- 0.9------------
1983-07-15 18.1 24.5 11.4- 67.0- 1.7 2.0---- 0.0------------
1983-07-14 19.1 23.7 15.1- 85.8- 1.3 2.7---- 0.0------------
1983-07-13 18.2 25.3 10.6- 86.5- 6.3 0.3---- 0.0------------
1983-07-12 17.6 23.0 14.2- 89.3- 5.3 2.7---- 0.0------------
1983-07-11 20.6 27.4 15.8- 75.5- 4.3 3.7---- 1.3------------
1983-07-10 20.9 26.9 13.0- 73.3- 1.7 2.7---- 0.0------------
1983-07-09 19.1 26.8 13.8- 75.0- 3.3 2.7---- 0.0------------
1983-07-08 17.7 24.8 11.1- 77.3- 5.3 3.7---- 0.0------------
1983-07-07 17.4 23.1 9.5- 72.0- 0.0 2.7---- 0.0------------
1983-07-06 17.2 22.0 11.1- 76.0- 4.3 2.3---- 0.0------------
1983-07-05 17.1 22.0 9.8- 68.0- 1.0 1.7---- 0.0------------
1983-07-04 18.6 24.6 12.4- 70.8- 1.3 1.3---- 0.0------------
1983-07-03 17.0 22.4 9.5- 66.3- 1.3 1.0---- 0.0------------
1983-07-02 17.5 21.7 14.8- 80.3- 2.3 2.3---- 0.0------------
1983-07-01 18.2 28.4 11.9- 70.0- 4.0 0.7---- 0.0------------
1983-06-30 16.1 22.6 8.7- 65.0- 0.3 3.0---- 0.0------------
1983-06-29 14.5 19.1 9.2- 71.3- 1.7 1.3---- 0.0------------
1983-06-28 14.9 17.5 13.3- 93.0- 7.0 2.3---- 12.4------------
1983-06-27 15.9 22.3 11.1- 84.0- 4.3 1.7---- 12.9------------
1983-06-26 15.0 20.9 10.0- 76.8- 4.0 1.7---- 0.0------------
1983-06-25 18.2 25.4 10.2- 66.8- 3.7 3.0---- 1.7------------
1983-06-24 17.1 24.0 6.5- 48.3- 0.7 2.0---- 0.0------------
1983-06-23 13.4 20.0 3.2- 59.3- 0.0 1.0---- 0.0------------
1983-06-22 10.8 15.7 4.3- 60.3- 0.7 2.0---- 0.0------------
1983-06-21 14.3 20.0 11.1- 70.3- 1.7 7.0---- 0.0------------
1983-06-20 18.3 22.7 11.9- 71.0- 1.0 4.3---- 0.0------------
1983-06-19 16.1 19.7 14.4- 88.8- 5.3 4.0---- 0.3------------
1983-06-18 14.5 19.0 9.8- 84.0- 3.7 2.7---- 0.0------------
1983-06-17 15.4 19.5 10.7- 72.3- 4.3 2.7---- 0.0------------
1983-06-16 13.1 15.7 11.1- 94.3- 8.0 4.3---- 4.8------------
328.4 ms

 

Źródłem pochodzenia danych jest Instytut Meteorologii i Gospodarki Wodnej – Państwowy Instytut Badawczy. Dane Instytutu Meteorologii i Gospodarki Wodnej – Państwowego Instytutu Badawczego zostały przetworzone.

Dane źródłowe można odnaleźć na stronie https://dane.imgw.pl